Impacts TAF Board INFO
FOR SITUATIONAL AWARENESS. NOT TO BE USED FOR FLIGHT PLANNING PURPOSES.
IDs:

KSLC - Salt Lake City Intl, UT, US

Issued at 1120 UTC 25 Sep 2017
Updated at 1328 UTC 25 Sep 2017
Potential Impact None Slight Moderate High
Time1254Z 25/14Z 25/15Z 25/16Z 25/17Z 25/18Z 25/19Z 25/20Z 25/21Z 25/22Z 25/23Z 26/00Z 26/01Z 26/02Z>>
Type OBS PRVL PRVL PRVL PRVL PRVL PRVL PRVL PRVL PRVL PRVL PRVL PRVL PRVL
VIS 10 >6 >6 >6 >6 >6 >6 >6 >6 >6 >6 >6 >6 >6
CIG -- -- -- -- -- -- -- -- -- -- -- -- -- --
Cover FEW SCT SCT SCT SCT SCT SCT SCT SCT SCT SCT SCT SCT SCT
FltCat VFR VFR VFR VFR VFR VFR VFR VFR VFR VFR VFR VFR VFR VFR
WX -- -- -- -- -- -- -- -- -- -- -- -- -- --
WDir 140 160 160 160 160 300 300 300 300 300 300 300 300 300
WSpd 5 6 6 6 6 7 7 7 7 7 7 7 7 7
WGst -- -- -- -- -- -- -- -- -- -- -- -- -- --

Raw TAF
KSLC 251120Z 2512/2618 16006KT P6SM SCT070
  FM251800 30007KT P6SM SCT070
  FM260300 16006KT P6SM SCT070


Raw METAR
KSLC 251254Z 14005KT 10SM FEW110 06/04 A3012 RMK AO2 SLP190 T00610044
KSLC 251154Z 13004KT 10SM FEW110 06/05 A3011 RMK AO2 SLP190 70048 T00560050 10078 20056 56001
KSLC 251054Z 14005KT 10SM BKN100 07/05 A3011 RMK AO2 SLP189 T00670050

METAR Board
Radar Display
Forecast Discussion

FOR SITUATIONAL AWARENESS. NOT TO BE USED FOR FLIGHT PLANNING PURPOSES.